Time;durP1;ratioP1;P1;durP2;ratioP2;P2;SDS_P1;SDS_P2;PMS_P1;PMS_P2;Temp;Humidity;BMP_temperature;BMP_pressure;BME280_temperature;BME280_humidity;BME280_pressure;Samples;Min_cycle;Max_cycle;Signal;HPM_P1;HPM_P2
2022/09/11 00:00:36;;;;;;;17.90;15.93;;;;;;;16.42;75.90;101654.91;6304575;22;20007;-58
2022/09/11 00:03:01;;;;;;;17.88;15.98;;;;;;;16.42;75.81;101659.66;6304142;22;20094;-58
2022/09/11 00:05:26;;;;;;;18.70;16.75;;;;;;;16.37;75.86;101663.28;6305341;22;19999;-58
2022/09/11 00:07:52;;;;;;;21.17;16.77;;;;;;;16.37;75.67;101662.44;6304647;22;19999;-58
2022/09/11 00:10:17;;;;;;;19.65;17.33;;;;;;;16.36;75.68;101663.56;6305338;22;20062;-58
2022/09/11 00:12:43;;;;;;;22.08;17.90;;;;;;;16.32;75.44;101654.88;6304008;22;20312;-58
2022/09/11 00:15:09;;;;;;;19.83;17.63;;;;;;;16.34;75.27;101654.59;6304592;22;20003;-58
2022/09/11 00:17:34;;;;;;;19.05;17.05;;;;;;;16.30;75.17;101657.09;6305017;22;20064;-58
2022/09/11 00:20:00;;;;;;;19.83;16.80;;;;;;;16.27;75.08;101657.66;6305050;22;20129;-58
2022/09/11 00:22:26;;;;;;;21.45;16.65;;;;;;;16.27;75.05;101657.66;6304791;22;20006;-58
2022/09/11 00:24:51;;;;;;;20.38;16.73;;;;;;;16.28;74.97;101655.69;6304265;22;20003;-58
2022/09/11 00:27:16;;;;;;;18.52;16.20;;;;;;;16.26;74.63;101664.34;6305274;22;20078;-58
2022/09/11 00:29:42;;;;;;;18.67;16.67;;;;;;;16.21;74.83;101661.53;6305146;22;20007;-58
2022/09/11 00:32:08;;;;;;;18.98;16.98;;;;;;;16.20;74.89;101663.50;6303077;22;20003;-58
2022/09/11 00:34:33;;;;;;;19.38;17.05;;;;;;;16.18;74.70;101662.06;6306029;22;20007;-58
2022/09/11 00:36:58;;;;;;;20.15;17.17;;;;;;;16.22;74.94;101666.00;6304143;22;20462;-58
2022/09/11 00:39:24;;;;;;;23.38;18.88;;;;;;;16.16;75.25;101665.16;6303932;22;19999;-58
2022/09/11 00:41:49;;;;;;;19.70;17.42;;;;;;;16.15;74.95;101668.19;6305041;22;19999;-58
2022/09/11 00:44:15;;;;;;;20.77;18.60;;;;;;;16.12;74.79;101668.75;6305137;22;20458;-58
2022/09/11 00:46:45;;;;;;;20.70;18.60;;;;;;;16.08;75.05;101676.03;6303999;22;20194;-57
2022/09/11 00:49:35;;;;;;;21.08;18.23;;;;;;;16.13;75.18;101674.09;6305234;22;20008;-58
2022/09/11 00:52:25;;;;;;;24.73;18.98;;;;;;;16.09;75.04;101681.34;6305675;22;20008;-58
2022/09/11 00:54:56;;;;;;;21.60;18.58;;;;;;;16.08;75.15;101676.03;6305818;22;20479;-58
2022/09/11 00:57:24;;;;;;;22.38;19.02;;;;;;;16.11;75.15;101684.72;6306910;22;20026;-58
2022/09/11 00:59:53;;;;;;;20.90;18.65;;;;;;;16.07;75.24;101685.50;6306132;22;20027;-58
2022/09/11 01:02:21;;;;;;;23.92;17.60;;;;;;;16.07;75.12;101682.72;6305705;22;20415;-58
2022/09/11 01:04:47;;;;;;;23.95;18.67;;;;;;;16.09;75.26;101684.13;6307477;22;20008;-58
2022/09/11 01:07:14;;;;;;;21.42;18.73;;;;;;;16.05;75.47;101685.78;6306512;22;20026;-58
2022/09/11 01:09:40;;;;;;;21.50;18.58;;;;;;;16.04;75.36;101688.88;6306707;22;20053;-58
2022/09/11 01:12:22;;;;;;;21.63;18.92;;;;;;;16.03;75.58;101690.81;6305858;22;20004;-57
2022/09/11 01:15:02;;;;;;;23.20;19.88;;;;;;;16.04;75.52;101684.13;6306388;22;20003;-57
2022/09/11 01:17:45;;;;;;;21.75;19.38;;;;;;;16.02;75.48;101691.09;6307035;22;20006;-58
2022/09/11 01:20:25;;;;;;;21.65;18.98;;;;;;;16.04;75.57;101697.28;6306493;22;20022;-58
2022/09/11 01:23:12;;;;;;;23.15;19.63;;;;;;;16.05;75.24;101690.56;6305388;22;20053;-58
2022/09/11 01:26:23;;;;;;;27.77;19.70;;;;;;;16.05;75.20;101685.78;6307673;22;20003;-57
2022/09/11 01:29:04;;;;;;;22.13;19.15;;;;;;;16.02;75.36;101685.50;6304567;22;21045;-57
2022/09/11 01:31:39;;;;;;;22.80;19.45;;;;;;;15.95;75.24;101685.72;6306334;22;20045;-57
2022/09/11 01:34:21;;;;;;;20.58;18.08;;;;;;;15.99;75.10;101694.41;6306417;22;19999;-57
2022/09/11 01:36:59;;;;;;;23.65;19.45;;;;;;;15.95;75.27;101692.19;6306170;22;20003;-58
2022/09/11 01:39:31;;;;;;;23.35;20.83;;;;;;;15.88;75.16;101685.97;6305864;22;20004;-57
2022/09/11 01:42:05;;;;;;;25.60;21.05;;;;;;;15.89;75.21;101690.44;6306162;22;20443;-58
2022/09/11 01:44:37;;;;;;;23.63;20.30;;;;;;;15.86;75.16;101688.16;6306873;22;20007;-58
2022/09/11 01:47:06;;;;;;;24.47;19.77;;;;;;;15.84;74.81;101693.22;6306959;22;20323;-57
2022/09/11 01:49:43;;;;;;;24.20;20.50;;;;;;;15.82;75.02;101701.03;6304682;22;20015;-58
2022/09/11 01:52:14;;;;;;;27.25;21.90;;;;;;;15.79;75.18;101698.75;6306069;22;20003;-57
2022/09/11 01:54:47;;;;;;;25.55;20.60;;;;;;;15.78;74.90;101696.22;6306848;22;20003;-57
2022/09/11 01:57:35;;;;;;;25.60;21.52;;;;;;;15.81;75.22;101695.69;6305204;22;20015;-57
2022/09/11 02:00:07;;;;;;;25.88;21.00;;;;;;;15.74;75.01;101695.91;6306967;22;20076;-57
2022/09/11 02:02:37;;;;;;;27.48;22.50;;;;;;;15.74;74.86;101704.31;6305619;22;20010;-57
2022/09/11 02:05:15;;;;;;;26.25;21.98;;;;;;;15.73;74.89;101697.03;6304915;22;20030;-57
2022/09/11 02:07:47;;;;;;;25.10;21.33;;;;;;;15.68;74.84;101699.81;6306519;22;20011;-57
2022/09/11 02:10:18;;;;;;;;;;;;;;;15.91;74.60;101699.41;6304861;22;19999;-57
2022/09/11 02:12:52;;;;;;;24.48;21.58;;;;;;;15.68;74.28;101702.59;6306945;22;19938;-58
2022/09/11 02:15:18;;;;;;;25.48;20.67;;;;;;;15.63;74.05;101708.09;6306159;22;20007;-57
2022/09/11 02:17:58;;;;;;;24.02;20.88;;;;;;;15.62;74.53;101703.63;6305615;22;19999;-58
2022/09/11 02:20:24;;;;;;;27.17;20.77;;;;;;;15.57;74.20;101711.97;6306727;22;20003;-58
2022/09/11 02:22:51;;;;;;;24.48;21.52;;;;;;;15.56;74.32;101704.66;6306614;22;20010;-57
2022/09/11 02:25:17;;;;;;;26.90;20.77;;;;;;;15.55;74.33;101714.19;6303717;22;20371;-58
2022/09/11 02:27:42;;;;;;;24.35;20.95;;;;;;;15.55;74.11;101708.59;6306606;22;20014;-58
2022/09/11 02:30:08;;;;;;;24.77;20.98;;;;;;;15.55;74.28;101715.03;6305348;22;20031;-57
2022/09/11 02:32:37;;;;;;;28.15;22.38;;;;;;;15.51;74.58;101713.88;6304947;22;20094;-57
2022/09/11 02:35:03;;;;;;;27.05;22.10;;;;;;;15.49;74.53;101716.09;6305161;22;20011;-57
2022/09/11 02:37:45;;;;;;;25.35;22.05;;;;;;;15.50;74.74;101714.97;6305831;22;20014;-57
2022/09/11 02:40:33;;;;;;;26.00;23.20;;;;;;;15.55;74.88;101709.44;6305206;22;20081;-57
2022/09/11 02:43:19;;;;;;;26.83;22.58;;;;;;;15.53;74.52;101716.41;6306386;22;20070;-57
2022/09/11 02:46:06;;;;;;;28.52;22.40;;;;;;;15.54;74.48;101720.91;6303852;22;20030;-58
2022/09/11 02:48:37;;;;;;;25.08;22.25;;;;;;;15.48;74.72;101719.97;6306245;22;20027;-58
2022/09/11 02:51:08;;;;;;;26.10;23.27;;;;;;;15.47;74.54;101724.75;6303296;22;20085;-58
2022/09/11 02:54:12;;;;;;;28.83;22.88;;;;;;;15.57;74.70;101721.22;6305537;22;20003;-58
2022/09/11 02:56:51;;;;;;;29.70;24.10;;;;;;;15.48;75.00;101731.19;6211176;23;20044;-59
2022/09/11 02:59:23;;;;;;;28.15;22.70;;;;;;;15.47;75.19;101718.31;6297228;22;20057;-58
2022/09/11 03:01:52;;;;;;;28.30;24.40;;;;;;;15.44;75.20;101719.69;6305186;22;20304;-58
2022/09/11 03:04:19;;;;;;;25.77;22.85;;;;;;;15.43;75.37;101723.59;6305698;22;20003;-58
2022/09/11 03:06:47;;;;;;;25.45;22.58;;;;;;;15.42;75.10;101729.47;6304447;22;20006;-59
2022/09/11 03:09:13;;;;;;;24.73;22.13;;;;;;;15.42;75.57;101735.06;6306089;22;20011;-59
2022/09/11 03:11:38;;;;;;;24.25;21.75;;;;;;;15.40;75.58;101737.25;6303688;22;20469;-59
2022/09/11 03:14:03;;;;;;;23.20;20.80;;;;;;;15.39;75.40;101736.41;6303670;22;19999;-59
2022/09/11 03:16:28;;;;;;;22.25;20.05;;;;;;;15.41;75.64;101742.59;6305215;22;20010;-59
2022/09/11 03:18:54;;;;;;;21.83;19.67;;;;;;;15.36;75.73;101733.28;6305305;22;20022;-58
2022/09/11 03:21:19;;;;;;;21.05;18.90;;;;;;;15.34;76.08;101730.78;6303545;22;20324;-59
2022/09/11 03:23:44;;;;;;;21.27;19.23;;;;;;;15.34;75.69;101736.38;6305643;22;20030;-57
2022/09/11 03:26:10;;;;;;;19.08;17.17;;;;;;;15.31;75.79;101736.88;6305710;22;20427;-56
2022/09/11 03:28:35;;;;;;;19.88;17.92;;;;;;;15.34;75.89;101733.56;6304955;22;20085;-56
2022/09/11 03:31:00;;;;;;;20.20;18.40;;;;;;;15.35;75.89;101732.44;6304869;22;20029;-57
2022/09/11 03:33:26;;;;;;;18.75;16.83;;;;;;;15.31;75.85;101731.28;6306039;22;20419;-57
2022/09/11 03:35:52;;;;;;;21.15;19.08;;;;;;;15.29;76.31;101733.53;6303536;22;19999;-57
2022/09/11 03:38:17;;;;;;;26.85;18.20;;;;;;;15.27;76.26;101735.72;6303813;22;20465;-57
2022/09/11 03:40:43;;;;;;;19.10;17.40;;;;;;;15.30;76.36;101735.22;6304220;22;20384;-57
2022/09/11 03:43:09;;;;;;;19.25;17.50;;;;;;;15.24;76.37;101736.25;6304248;22;20015;-57
2022/09/11 03:45:34;;;;;;;19.45;17.65;;;;;;;15.26;76.26;101736.84;6304659;22;20011;-57
2022/09/11 03:48:00;;;;;;;21.75;18.00;;;;;;;15.25;76.66;101737.97;6304920;22;20086;-58
2022/09/11 03:50:25;;;;;;;27.60;18.48;;;;;;;15.23;76.53;101745.75;6303265;22;20007;-58
2022/09/11 03:52:51;;;;;;;19.15;17.42;;;;;;;15.23;76.71;101740.16;6304828;22;20010;-57
2022/09/11 03:55:16;;;;;;;18.85;17.05;;;;;;;15.21;76.69;101734.00;6305386;22;20374;-58
2022/09/11 03:57:42;;;;;;;20.70;17.70;;;;;;;15.19;76.60;101739.00;6304067;22;20015;-57
2022/09/11 04:00:09;;;;;;;19.70;17.85;;;;;;;15.16;76.70;101739.50;6305819;22;19999;-58
2022/09/11 04:02:34;;;;;;;19.88;18.08;;;;;;;15.18;76.61;101738.16;6304607;22;20031;-58
2022/09/11 04:04:59;;;;;;;20.95;18.85;;;;;;;15.16;76.34;101743.16;6303206;22;20015;-58
2022/09/11 04:07:24;;;;;;;20.85;18.73;;;;;;;15.15;76.70;101744.25;6305650;22;20338;-58
2022/09/11 04:09:50;;;;;;;21.65;19.60;;;;;;;15.20;76.94;101740.69;6304953;22;20011;-58
2022/09/11 04:12:16;;;;;;;22.00;19.60;;;;;;;15.17;76.88;101739.28;6304845;22;20038;-58
2022/09/11 04:14:41;;;;;;;19.52;17.73;;;;;;;15.19;76.79;101733.41;6304932;22;20082;-58
2022/09/11 04:17:07;;;;;;;21.15;19.05;;;;;;;15.14;76.65;101736.16;6304023;22;20003;-58
2022/09/11 04:19:35;;;;;;;19.88;18.08;;;;;;;15.15;76.68;101735.88;6304426;22;20007;-58
2022/09/11 04:22:00;;;;;;;20.88;18.90;;;;;;;15.13;76.53;101746.50;6303829;22;20094;-58
2022/09/11 04:24:25;;;;;;;20.20;18.30;;;;;;;15.11;76.58;101737.50;6304878;22;20027;-58
2022/09/11 04:26:51;;;;;;;20.85;18.80;;;;;;;15.10;76.62;101738.63;6303790;22;20129;-58
2022/09/11 04:29:16;;;;;;;21.60;19.48;;;;;;;15.10;76.51;101738.63;6304957;22;20014;-58
2022/09/11 04:31:42;;;;;;;20.95;18.98;;;;;;;15.06;76.19;101728.22;6305403;22;20415;-58
2022/09/11 04:34:08;;;;;;;23.20;18.85;;;;;;;15.07;76.58;101735.50;6306672;22;20007;-58
2022/09/11 04:36:33;;;;;;;21.33;19.23;;;;;;;15.04;76.59;101736.03;6307339;22;20003;-58
2022/09/11 04:38:59;;;;;;;21.02;18.92;;;;;;;15.05;76.17;101732.09;6305938;22;20001;-58
2022/09/11 04:41:26;;;;;;;20.45;18.30;;;;;;;15.03;76.24;101742.72;6306805;22;20010;-58
2022/09/11 04:43:57;;;;;;;20.77;18.88;;;;;;;15.03;76.31;101734.34;6306716;22;20014;-58
2022/09/11 04:46:23;;;;;;;20.88;18.88;;;;;;;14.97;76.05;101734.28;6305905;22;20030;-58
2022/09/11 04:48:54;;;;;;;20.55;18.65;;;;;;;14.95;76.12;101744.88;6306457;22;20003;-58
2022/09/11 04:51:25;;;;;;;20.83;18.95;;;;;;;14.98;76.20;101754.69;6305713;22;20334;-58
2022/09/11 04:53:52;;;;;;;20.23;18.33;;;;;;;14.93;76.22;101751.81;6305364;22;20004;-58
2022/09/11 04:56:19;;;;;;;19.58;17.77;;;;;;;14.93;76.03;101747.09;6305953;22;19996;-58
2022/09/11 04:58:45;;;;;;;21.00;19.00;;;;;;;14.92;76.11;101756.56;6306093;22;20007;-58
2022/09/11 05:01:15;;;;;;;21.10;19.10;;;;;;;14.92;75.99;101761.31;6304218;22;20071;-58
2022/09/11 05:03:42;;;;;;;22.17;20.02;;;;;;;14.91;75.90;101746.50;6306846;22;19999;-58
2022/09/11 05:06:09;;;;;;;22.30;20.20;;;;;;;14.88;76.16;101749.81;6303871;22;20324;-57
2022/09/11 05:08:35;;;;;;;21.02;19.13;;;;;;;14.86;75.92;101745.59;6305545;22;20003;-58
2022/09/11 05:11:02;;;;;;;22.58;20.05;;;;;;;14.85;76.26;101747.53;6306274;22;20022;-58
2022/09/11 05:13:28;;;;;;;25.98;19.70;;;;;;;14.82;76.53;101753.66;6304443;22;20061;-58
2022/09/11 05:16:00;;;;;;;22.23;19.90;;;;;;;14.82;76.59;101759.25;6304613;22;20057;-58
2022/09/11 05:18:25;;;;;;;21.67;19.67;;;;;;;14.83;76.16;101768.47;6306661;22;20015;-58
2022/09/11 05:20:59;;;;;;;20.77;18.90;;;;;;;14.84;76.05;101765.41;6305212;22;20756;-56
2022/09/11 05:23:24;;;;;;;22.48;20.33;;;;;;;14.81;76.13;101771.50;6304401;22;20327;-57
2022/09/11 05:25:49;;;;;;;24.88;19.85;;;;;;;14.81;76.35;101790.22;6304920;22;20078;-57
2022/09/11 05:28:16;;;;;;;21.20;19.10;;;;;;;14.78;76.00;101787.97;6305407;22;20061;-58
2022/09/11 05:30:41;;;;;;;19.55;17.85;;;;;;;14.79;76.24;101795.25;6306232;22;19999;-58
2022/09/11 05:33:07;;;;;;;19.60;17.80;;;;;;;14.77;76.02;101792.69;6306057;22;20010;-57
2022/09/11 05:35:33;;;;;;;19.55;17.65;;;;;;;14.78;76.08;101794.41;6305612;22;20007;-57
2022/09/11 05:37:58;;;;;;;20.23;17.17;;;;;;;14.75;76.03;101811.69;6305020;22;20034;-58
2022/09/11 05:40:23;;;;;;;19.00;17.40;;;;;;;14.79;75.66;101810.06;6305238;22;20004;-58
2022/09/11 05:42:48;;;;;;;18.23;16.55;;;;;;;14.76;75.62;101818.13;6303917;22;20003;-58
2022/09/11 05:45:14;;;;;;;17.60;16.10;;;;;;;14.77;75.78;101817.84;6306347;22;20486;-58
2022/09/11 05:47:39;;;;;;;17.55;16.05;;;;;;;14.79;75.84;101823.19;6305415;22;19999;-58
2022/09/11 05:50:05;;;;;;;17.05;15.55;;;;;;;14.78;76.11;101827.94;6304833;22;20015;-58
2022/09/11 05:52:30;;;;;;;16.60;15.20;;;;;;;14.76;75.64;101810.56;6305981;22;20007;-58
2022/09/11 05:54:57;;;;;;;16.75;15.15;;;;;;;14.73;75.66;101823.09;6306497;22;20092;-58
2022/09/11 05:57:22;;;;;;;16.35;14.95;;;;;;;14.73;75.85;101833.44;6305509;22;20009;-58
2022/09/11 05:59:48;;;;;;;15.70;14.35;;;;;;;14.71;75.70;101835.66;6306293;22;20082;-58
2022/09/11 06:02:13;;;;;;;16.15;14.75;;;;;;;14.77;75.80;101837.41;6304876;22;20306;-58
2022/09/11 06:04:38;;;;;;;16.20;14.70;;;;;;;14.73;75.80;101836.22;6305665;22;20007;-58
2022/09/11 06:07:03;;;;;;;16.75;15.02;;;;;;;14.72;75.88;101843.78;6305383;22;20003;-58
2022/09/11 06:09:29;;;;;;;16.40;14.95;;;;;;;14.74;76.10;101840.75;6305072;22;20332;-58
2022/09/11 06:11:54;;;;;;;15.63;14.23;;;;;;;14.74;76.03;101840.75;6304614;22;20007;-57
2022/09/11 06:14:20;;;;;;;16.75;15.07;;;;;;;14.74;76.20;101843.53;6304666;22;20003;-59
2022/09/11 06:16:47;;;;;;;20.75;15.02;;;;;;;14.67;76.18;101845.66;6303728;22;20000;-58
2022/09/11 06:19:12;;;;;;;17.27;15.63;;;;;;;14.70;76.24;101842.38;6305890;22;20082;-58
2022/09/11 06:21:38;;;;;;;17.98;16.30;;;;;;;14.73;76.32;101841.81;6304674;22;20042;-58
2022/09/11 06:24:04;;;;;;;16.13;14.55;;;;;;;14.76;76.66;101863.69;6304746;22;20003;-58
2022/09/11 06:26:29;;;;;;;16.33;14.82;;;;;;;14.72;76.67;101852.16;6305338;22;20009;-58
2022/09/11 06:28:55;;;;;;;16.55;15.02;;;;;;;14.76;76.74;101862.84;6305646;22;20074;-58
2022/09/11 06:31:23;;;;;;;15.90;14.30;;;;;;;14.78;76.96;101861.50;6304895;22;20412;-58
2022/09/11 06:33:49;;;;;;;15.80;14.40;;;;;;;14.77;76.74;101859.78;6304523;22;19999;-58
2022/09/11 06:36:17;;;;;;;22.30;14.93;;;;;;;14.75;77.36;101869.53;6306354;22;19999;-58
2022/09/11 06:38:43;;;;;;;17.10;15.40;;;;;;;14.79;77.40;101868.75;6305112;22;20066;-58
2022/09/11 06:41:13;;;;;;;16.55;14.95;;;;;;;14.78;77.61;101869.88;6303939;22;20003;-58
2022/09/11 06:43:39;;;;;;;16.85;15.15;;;;;;;14.79;77.72;101874.34;6305804;22;20069;-59
2022/09/11 06:46:05;;;;;;;16.60;14.98;;;;;;;14.82;77.89;101867.41;6304549;22;20003;-58
2022/09/11 06:48:30;;;;;;;18.13;16.42;;;;;;;14.85;77.56;101867.72;6304984;22;20003;-59
2022/09/11 06:50:56;;;;;;;16.33;14.73;;;;;;;14.86;77.49;101875.03;6304710;22;20011;-59
2022/09/11 06:53:22;;;;;;;16.88;15.25;;;;;;;14.87;77.55;101875.88;6303142;22;20007;-58
2022/09/11 06:55:47;;;;;;;15.60;14.20;;;;;;;14.87;77.58;101876.69;6306019;22;20030;-58
2022/09/11 06:58:12;;;;;;;16.23;14.73;;;;;;;14.89;77.32;101880.06;6303414;22;19999;-58
2022/09/11 07:00:38;;;;;;;16.08;14.65;;;;;;;14.91;77.80;101877.88;6303176;22;20014;-58
2022/09/11 07:03:03;;;;;;;15.93;14.43;;;;;;;14.93;78.29;101880.41;6303341;22;19999;-57
2022/09/11 07:05:29;;;;;;;16.25;14.75;;;;;;;14.96;77.91;101882.69;6305072;22;20003;-58
2022/09/11 07:07:54;;;;;;;16.48;14.90;;;;;;;15.02;78.22;101880.84;6302899;22;20003;-58
2022/09/11 07:10:21;;;;;;;17.70;16.05;;;;;;;15.01;78.49;101884.72;6302620;22;20010;-58
2022/09/11 07:12:47;;;;;;;16.80;15.30;;;;;;;15.06;78.35;101882.84;6302341;22;20438;-57
2022/09/11 07:15:12;;;;;;;17.38;15.75;;;;;;;15.08;78.80;101882.59;6305274;22;20021;-57
2022/09/11 07:17:37;;;;;;;17.25;15.55;;;;;;;15.12;78.63;101886.56;6302953;22;20003;-57
2022/09/11 07:20:03;;;;;;;17.20;15.50;;;;;;;15.11;78.90;101888.50;6304384;22;20011;-57
2022/09/11 07:22:30;;;;;;;18.55;16.85;;;;;;;15.15;79.56;101872.91;6303513;22;20034;-57
2022/09/11 07:24:55;;;;;;;17.73;16.10;;;;;;;15.13;78.87;101872.34;6305316;22;20032;-58
2022/09/11 07:27:20;;;;;;;18.75;16.85;;;;;;;15.14;79.09;101876.81;6303510;22;20007;-57
2022/09/11 07:29:48;;;;;;;18.55;16.65;;;;;;;15.19;79.37;101873.22;6304647;22;20119;-58
2022/09/11 07:32:14;;;;;;;19.23;17.35;;;;;;;15.17;79.67;101875.47;6302472;22;20011;-58
2022/09/11 07:34:39;;;;;;;21.30;17.65;;;;;;;15.25;79.81;101871.34;6303484;22;20061;-57
2022/09/11 07:37:04;;;;;;;19.52;17.63;;;;;;;15.31;79.89;101879.53;6303477;22;20003;-64
2022/09/11 07:39:30;;;;;;;19.20;17.45;;;;;;;15.32;79.77;101878.44;6303869;22;20335;-57
2022/09/11 07:41:55;;;;;;;19.42;17.42;;;;;;;15.36;79.66;101876.81;6304346;22;20014;-56
2022/09/11 07:44:22;;;;;;;19.77;17.70;;;;;;;15.36;79.70;101875.97;6303538;22;20027;-57
2022/09/11 07:46:48;;;;;;;20.20;18.20;;;;;;;15.43;79.60;101874.66;6305018;22;20004;-57
2022/09/11 07:49:14;;;;;;;19.33;17.45;;;;;;;15.42;79.73;101875.78;6303007;22;20012;-58
2022/09/11 07:51:40;;;;;;;21.15;19.02;;;;;;;15.47;79.93;101886.19;6304860;22;20454;-57
2022/09/11 07:54:06;;;;;;;20.13;18.20;;;;;;;15.51;79.55;101878.09;6304066;22;20003;-58
2022/09/11 07:56:33;;;;;;;19.92;18.00;;;;;;;15.54;80.12;101875.63;6304197;22;20423;-58
2022/09/11 07:59:00;;;;;;;20.77;18.70;;;;;;;15.59;80.47;101872.03;6303672;22;20056;-58
2022/09/11 08:01:28;;;;;;;22.48;20.25;;;;;;;15.60;80.94;101890.53;6303405;22;19999;-59
2022/09/11 08:03:57;;;;;;;22.95;20.45;;;;;;;15.58;80.38;101881.56;6302013;22;20003;-58
2022/09/11 08:06:23;;;;;;;23.20;20.80;;;;;;;15.64;80.45;101892.56;6305486;22;20470;-59
2022/09/11 08:08:53;;;;;;;23.48;20.98;;;;;;;15.66;80.47;101895.13;6304787;22;20322;-58
2022/09/11 08:11:19;;;;;;;22.88;20.48;;;;;;;15.70;80.42;101899.91;6304114;22;20007;-58
2022/09/11 08:13:50;;;;;;;24.40;21.02;;;;;;;15.77;80.67;101901.69;6305496;22;20416;-58
2022/09/11 08:16:16;;;;;;;24.67;21.50;;;;;;;15.80;80.95;101904.81;6302258;22;20082;-57
2022/09/11 08:18:42;;;;;;;24.67;22.02;;;;;;;15.89;80.22;101899.59;6302006;22;20006;-58
2022/09/11 08:21:09;;;;;;;24.52;21.90;;;;;;;15.92;80.66;101911.09;6304143;22;20374;-58
2022/09/11 08:23:36;;;;;;;26.85;22.77;;;;;;;15.97;80.31;101901.06;6303418;22;20515;-59
2022/09/11 08:26:14;;;;;;;25.67;22.98;;;;;;;16.03;80.65;101916.78;6305678;22;20007;-57
2022/09/11 08:28:41;;;;;;;24.77;22.02;;;;;;;16.07;80.63;101918.84;6306176;22;20450;-57
2022/09/11 08:31:08;;;;;;;24.60;22.00;;;;;;;16.12;80.10;101912.44;6304797;22;20431;-57
2022/09/11 08:33:34;;;;;;;26.25;23.38;;;;;;;16.17;80.34;101915.28;6305856;22;20011;-57
2022/09/11 08:36:02;;;;;;;26.33;23.17;;;;;;;16.26;80.87;101918.44;6305462;22;20542;-57
2022/09/11 08:38:28;;;;;;;26.85;23.75;;;;;;;16.34;80.47;101917.94;6303648;22;20073;-57
2022/09/11 08:40:54;;;;;;;30.30;25.60;;;;;;;16.48;81.50;101919.22;6305034;22;20007;-58
2022/09/11 08:43:25;;;;;;;29.08;24.42;;;;;;;16.61;80.35;101918.75;6305786;22;20004;-58
2022/09/11 08:45:55;;;;;;;31.20;25.50;;;;;;;16.82;80.79;101917.00;6305226;22;20327;-58
2022/09/11 08:48:27;;;;;;;30.33;26.80;;;;;;;17.02;80.96;101924.72;6305765;22;20117;-58
2022/09/11 08:50:52;;;;;;;36.08;28.60;;;;;;;17.19;81.09;101927.31;6304849;22;20657;-58
2022/09/11 08:53:18;;;;;;;32.58;27.98;;;;;;;17.30;80.57;101929.09;6304542;22;20004;-58
2022/09/11 08:56:01;;;;;;;30.90;27.58;;;;;;;17.35;78.90;101929.09;6306476;22;20006;-58
2022/09/11 08:58:50;;;;;;;33.33;28.30;;;;;;;17.47;78.76;101914.00;6306319;22;20003;-58
2022/09/11 09:01:30;;;;;;;30.13;26.67;;;;;;;17.64;78.77;101923.03;6305917;22;20009;-57
2022/09/11 09:04:26;;;;;;;32.13;28.05;;;;;;;17.77;78.47;101925.41;6306213;22;20007;-58
2022/09/11 09:07:09;;;;;;;35.67;29.83;;;;;;;17.93;78.47;101919.84;6303930;22;20789;-58
2022/09/11 09:09:56;;;;;;;33.30;29.20;;;;;;;18.04;77.13;101924.34;6305065;22;20046;-58
2022/09/11 09:12:48;;;;;;;35.83;29.70;;;;;;;18.12;77.31;101933.09;6304593;22;20011;-58
2022/09/11 09:15:29;;;;;;;34.45;29.02;;;;;;;18.20;76.30;101926.06;6307516;22;20020;-58
2022/09/11 09:18:07;;;;;;;32.47;28.98;;;;;;;18.33;76.32;101936.75;6306754;22;20030;-58
2022/09/11 09:20:37;;;;;;;36.72;30.05;;;;;;;18.46;76.45;101932.56;6304078;22;20014;-58
2022/09/11 09:23:12;;;;;;;34.88;29.02;;;;;;;18.56;75.69;101938.19;6306749;22;20010;-58
2022/09/11 09:25:40;;;;;;;32.10;28.70;;;;;;;18.68;75.30;101940.72;6305043;22;20038;-58
2022/09/11 09:28:18;;;;;;;30.02;25.42;;;;;;;18.78;74.97;101937.91;6305380;22;20007;-58
2022/09/11 09:30:50;;;;;;;11.50;10.25;;;;;;;19.09;73.63;101933.09;6305123;22;20086;-60
2022/09/11 09:33:26;;;;;;;17.50;15.63;;;;;;;19.28;72.94;101932.50;6304817;22;20486;-60
2022/09/11 09:35:53;;;;;;;25.40;22.83;;;;;;;19.34;71.94;101932.22;6305092;22;20014;-60
2022/09/11 09:38:21;;;;;;;23.45;20.13;;;;;;;19.47;70.79;101935.56;6304926;22;20077;-60
2022/09/11 09:41:17;;;;;;;21.90;18.05;;;;;;;19.55;71.52;101940.59;6302729;22;20003;-59
2022/09/11 09:43:51;;;;;;;18.80;17.02;;;;;;;19.53;70.08;101942.84;6304039;22;20011;-59
2022/09/11 09:46:40;;;;;;;21.67;19.38;;;;;;;19.43;69.82;101931.63;6303390;22;20034;-59
2022/09/11 09:49:09;;;;;;;23.13;20.67;;;;;;;19.35;69.44;101933.91;6304357;22;20011;-57
2022/09/11 09:51:35;;;;;;;19.20;17.20;;;;;;;19.51;69.47;101942.28;6302119;22;20041;-59
2022/09/11 09:54:01;;;;;;;22.67;19.33;;;;;;;19.66;69.37;101941.44;6305324;22;20386;-71
2022/09/11 09:56:30;;;;;;;19.75;17.65;;;;;;;19.82;69.02;101938.25;6304847;22;20033;-59
2022/09/11 09:59:01;;;;;;;27.98;24.98;;;;;;;19.73;68.79;101941.94;6306517;22;20363;-59
2022/09/11 10:01:38;;;;;;;27.25;24.38;;;;;;;19.79;69.15;101941.63;6304854;22;20003;-59
2022/09/11 10:04:16;;;;;;;27.73;24.95;;;;;;;19.82;69.14;101941.06;6305546;22;20034;-59
2022/09/11 10:06:48;;;;;;;27.70;24.60;;;;;;;19.93;69.28;101936.22;6305999;22;20003;-58
2022/09/11 10:09:32;;;;;;;25.17;22.58;;;;;;;19.98;69.73;101943.81;6305009;22;20003;-59
2022/09/11 10:12:01;;;;;;;23.52;21.08;;;;;;;20.09;68.33;101937.81;6305062;22;20312;-59
2022/09/11 10:14:31;;;;;;;26.52;23.60;;;;;;;20.13;66.19;101943.72;6306126;22;20416;-57
2022/09/11 10:16:59;;;;;;;23.92;21.20;;;;;;;20.21;66.41;101940.28;6304825;22;20007;-57
2022/09/11 10:19:41;;;;;;;21.50;19.20;;;;;;;20.37;68.20;101940.19;6304135;22;19999;-58
2022/09/11 10:22:25;;;;;;;17.38;15.65;;;;;;;20.47;67.73;101937.28;6305348;22;20004;-58
2022/09/11 10:25:01;;;;;;;18.98;17.08;;;;;;;20.41;67.05;101936.47;6305745;22;20011;-58
2022/09/11 10:27:29;;;;;;;19.40;17.42;;;;;;;20.33;65.62;101937.09;6305019;22;20086;-58
2022/09/11 10:29:56;;;;;;;21.80;19.55;;;;;;;20.18;66.28;101926.78;6306216;22;20011;-58
2022/09/11 10:32:23;;;;;;;29.58;25.23;;;;;;;20.07;66.66;101933.59;6306205;22;19999;-58
2022/09/11 10:34:50;;;;;;;29.88;25.60;;;;;;;19.98;67.70;101936.19;6303508;22;20106;-58
2022/09/11 10:37:26;;;;;;;22.13;19.83;;;;;;;19.90;67.38;101936.81;6304198;22;19999;-58
2022/09/11 10:39:54;;;;;;;26.25;23.52;;;;;;;19.77;67.44;101938.28;6306521;22;20030;-59
2022/09/11 10:42:24;;;;;;;28.88;25.88;;;;;;;19.67;67.94;101935.50;6304523;22;20075;-58
2022/09/11 10:44:53;;;;;;;21.30;19.08;;;;;;;19.61;68.08;101936.63;6304045;22;20397;-58
2022/09/11 10:47:27;;;;;;;25.23;22.60;;;;;;;19.55;68.22;101934.97;6305603;22;20011;-59
2022/09/11 10:50:22;;;;;;;28.50;24.73;;;;;;;19.47;68.47;101942.03;6303097;22;20351;-58
2022/09/11 10:52:56;;;;;;;21.45;19.15;;;;;;;19.49;67.88;101941.72;6299351;22;20097;-58
2022/09/11 10:55:24;;;;;;;23.45;20.85;;;;;;;19.44;68.37;101936.97;6301626;22;20082;-59
2022/09/11 10:57:58;;;;;;;24.48;22.02;;;;;;;19.48;68.66;101937.22;6300901;22;19999;-60
2022/09/11 11:00:29;;;;;;;25.17;22.33;;;;;;;19.53;69.25;101940.88;6299845;22;20041;-58
2022/09/11 11:03:04;;;;;;;21.90;19.63;;;;;;;19.60;67.74;101943.38;6302885;22;20007;-59
2022/09/11 11:05:55;;;;;;;21.48;19.20;;;;;;;19.75;67.48;101940.53;6301540;22;20010;-59
2022/09/11 11:08:29;;;;;;;22.90;20.45;;;;;;;19.81;66.63;101942.22;6262604;22;20003;-59
2022/09/11 11:11:11;;;;;;;20.60;18.40;;;;;;;19.91;66.68;101934.81;6303850;22;20037;-60
2022/09/11 11:13:50;;;;;;;19.88;17.75;;;;;;;20.02;67.70;101931.66;6300861;22;20321;-59
2022/09/11 11:16:32;;;;;;;14.95;13.27;;;;;;;20.14;65.70;101938.94;6303843;22;20003;-59
2022/09/11 11:19:08;;;;;;;14.90;13.30;;;;;;;20.28;65.64;101934.34;6303371;22;20473;-58
2022/09/11 11:21:52;;;;;;;17.35;14.85;;;;;;;20.40;66.03;101931.16;6301783;22;20078;-58